createdAt,value
2023-04-19T00:02:03.234Z,99.90
2023-04-19T00:04:30.296Z,99.90
2023-04-19T00:06:58.671Z,99.90
2023-04-19T00:09:25.865Z,99.90
2023-04-19T00:11:53.203Z,99.90
2023-04-19T00:14:20.223Z,99.90
2023-04-19T00:16:47.071Z,99.90
2023-04-19T00:19:14.340Z,99.90
2023-04-19T00:21:41.448Z,99.90
2023-04-19T00:24:08.274Z,99.90
2023-04-19T00:26:35.324Z,99.90
2023-04-19T00:29:02.604Z,99.90
2023-04-19T00:31:29.508Z,99.90
2023-04-19T00:33:57.557Z,99.90
2023-04-19T00:36:27.246Z,99.90
2023-04-19T00:38:54.006Z,99.90
2023-04-19T00:41:21.398Z,99.90
2023-04-19T00:43:48.118Z,99.90
2023-04-19T00:46:15.933Z,99.90
2023-04-19T00:48:42.815Z,99.90
2023-04-19T00:51:12.573Z,99.90
2023-04-19T00:53:41.299Z,99.90
2023-04-19T00:56:09.753Z,99.90
2023-04-19T00:58:38.655Z,99.90
2023-04-19T01:01:06.372Z,99.90
2023-04-19T01:03:35.092Z,99.90
2023-04-19T01:06:02.526Z,99.90
2023-04-19T01:08:29.278Z,99.90
2023-04-19T01:10:56.102Z,99.90
2023-04-19T01:13:22.947Z,99.90
2023-04-19T01:15:51.481Z,99.90
2023-04-19T01:18:20.726Z,99.90
2023-04-19T01:20:48.492Z,99.90
2023-04-19T01:23:15.475Z,99.90
2023-04-19T01:25:42.349Z,99.90
2023-04-19T01:28:09.108Z,99.90
2023-04-19T01:30:37.188Z,99.90
2023-04-19T01:33:04.086Z,99.90
2023-04-19T01:35:30.861Z,99.90
2023-04-19T01:37:58.268Z,99.90
2023-04-19T01:40:26.116Z,99.90
2023-04-19T01:42:53.605Z,99.90
2023-04-19T01:45:20.626Z,99.90
2023-04-19T01:47:51.181Z,99.90
2023-04-19T01:50:18.217Z,99.90
2023-04-19T01:52:45.106Z,99.90
2023-04-19T01:55:11.866Z,99.90
2023-04-19T01:57:39.148Z,99.90
2023-04-19T02:00:06.667Z,99.90
2023-04-19T02:02:42.002Z,99.90
2023-04-19T02:05:09.343Z,99.90
2023-04-19T02:07:36.109Z,99.90
2023-04-19T02:10:03.546Z,99.90
2023-04-19T02:12:31.092Z,99.90
2023-04-19T02:14:59.500Z,99.90
2023-04-19T02:17:34.566Z,99.90
2023-04-19T02:20:01.512Z,99.90
2023-04-19T02:22:28.246Z,99.90
2023-04-19T02:24:55.014Z,99.90
2023-04-19T02:27:29.601Z,99.90
2023-04-19T02:29:56.642Z,99.90
2023-04-19T02:32:24.521Z,99.90
2023-04-19T02:34:51.962Z,99.90
2023-04-19T02:37:18.799Z,99.90
2023-04-19T02:39:46.251Z,99.90
2023-04-19T02:42:13.183Z,99.90
2023-04-19T02:44:40.002Z,99.90
2023-04-19T02:47:07.086Z,99.90
2023-04-19T02:49:36.661Z,99.90
2023-04-19T02:52:04.151Z,99.90
2023-04-19T02:54:33.325Z,99.90
2023-04-19T02:57:00.970Z,99.90
2023-04-19T02:59:27.916Z,99.90
2023-04-19T03:01:56.362Z,99.90
2023-04-19T03:04:24.576Z,99.90
2023-04-19T03:06:53.069Z,99.90
2023-04-19T03:09:20.343Z,99.90
2023-04-19T03:11:47.070Z,99.90
2023-04-19T03:14:13.978Z,99.90
2023-04-19T03:16:40.987Z,99.90
2023-04-19T03:19:08.250Z,99.90
2023-04-19T03:21:40.284Z,99.90
2023-04-19T03:24:07.225Z,99.90
2023-04-19T03:26:37.125Z,99.90
2023-04-19T03:29:04.349Z,99.90
2023-04-19T03:31:33.972Z,99.90
2023-04-19T03:34:00.733Z,99.90
2023-04-19T03:36:33.911Z,99.90
2023-04-19T03:39:00.741Z,99.90
2023-04-19T03:41:28.106Z,99.90
2023-04-19T03:44:18.427Z,99.90
2023-04-19T03:46:46.598Z,99.90
2023-04-19T03:49:15.870Z,99.90
2023-04-19T03:51:45.848Z,99.90
2023-04-19T03:54:12.678Z,99.90
2023-04-19T03:56:39.886Z,99.90
2023-04-19T03:59:06.888Z,99.90
2023-04-19T04:01:41.865Z,99.90
2023-04-19T04:04:09.568Z,99.90
2023-04-19T04:06:36.584Z,99.90
2023-04-19T04:09:04.238Z,99.90
2023-04-19T04:11:31.384Z,99.90
2023-04-19T04:13:58.598Z,99.90
2023-04-19T04:16:31.559Z,99.90
2023-04-19T04:18:58.959Z,99.90
2023-04-19T04:21:28.224Z,99.90
2023-04-19T04:23:58.643Z,99.90
2023-04-19T04:26:35.249Z,99.90
2023-04-19T04:29:20.941Z,99.90
2023-04-19T04:31:49.871Z,99.90
2023-04-19T04:34:20.503Z,99.90
2023-04-19T04:36:53.253Z,99.90
2023-04-19T04:39:23.489Z,99.90
2023-04-19T04:41:51.906Z,99.90
2023-04-19T04:44:20.335Z,99.90
2023-04-19T04:46:47.098Z,99.90
2023-04-19T04:49:19.374Z,99.90
2023-04-19T04:51:46.130Z,99.90
2023-04-19T04:54:13.652Z,99.90
2023-04-19T04:56:41.309Z,99.90
2023-04-19T04:59:08.429Z,99.90
2023-04-19T05:01:39.513Z,99.90
2023-04-19T05:04:06.680Z,99.90
2023-04-19T05:06:33.506Z,99.90
2023-04-19T05:09:00.305Z,99.90
2023-04-19T05:11:34.905Z,99.90
2023-04-19T05:14:02.761Z,99.90
2023-04-19T05:16:29.809Z,99.90
2023-04-19T05:18:57.687Z,99.90
2023-04-19T05:21:26.814Z,99.90
2023-04-19T05:23:54.238Z,99.90
2023-04-19T05:26:21.619Z,99.90
2023-04-19T05:28:50.185Z,99.90
2023-04-19T05:31:26.390Z,99.90
2023-04-19T05:34:08.432Z,99.90
2023-04-19T05:36:35.510Z,99.90
2023-04-19T05:39:02.250Z,99.90
2023-04-19T05:41:29.019Z,99.90
2023-04-19T05:43:55.892Z,99.90
2023-04-19T05:46:23.069Z,99.90
2023-04-19T05:48:50.909Z,99.90
2023-04-19T05:51:44.321Z,99.90
2023-04-19T05:54:46.348Z,99.90
2023-04-19T05:57:13.740Z,99.90
2023-04-19T05:59:40.566Z,99.90
2023-04-19T06:02:08.044Z,99.90
2023-04-19T06:04:35.167Z,99.90
2023-04-19T06:07:04.538Z,99.90
2023-04-19T06:09:32.994Z,99.90
2023-04-19T06:12:00.509Z,99.90
2023-04-19T06:14:29.337Z,99.90
2023-04-19T06:16:57.281Z,99.90
2023-04-19T06:19:24.185Z,99.90
2023-04-19T06:21:51.483Z,99.90
2023-04-19T06:24:18.227Z,99.90
2023-04-19T06:26:45.168Z,99.90
2023-04-19T06:29:11.942Z,99.90
2023-04-19T06:31:38.757Z,99.90
2023-04-19T06:34:05.536Z,99.90
2023-04-19T06:36:32.921Z,99.90
2023-04-19T06:38:59.657Z,99.90
2023-04-19T06:41:26.809Z,99.90
2023-04-19T06:43:53.531Z,99.90
2023-04-19T06:46:20.368Z,99.90
2023-04-19T06:48:47.220Z,99.90
2023-04-19T06:51:14.021Z,99.90
2023-04-19T06:53:40.815Z,99.90
2023-04-19T06:56:07.907Z,99.90
2023-04-19T06:58:35.350Z,99.90
2023-04-19T07:01:05.026Z,99.90
2023-04-19T07:03:32.429Z,99.90
2023-04-19T07:05:59.601Z,99.90
2023-04-19T07:08:34.904Z,99.90
2023-04-19T07:11:05.952Z,99.90
2023-04-19T07:13:32.677Z,99.90
2023-04-19T07:15:59.624Z,99.90
2023-04-19T07:18:26.331Z,99.90
2023-04-19T07:20:53.238Z,99.90
2023-04-19T07:23:19.986Z,99.90
2023-04-19T07:25:46.793Z,99.90
2023-04-19T07:28:13.930Z,99.90
2023-04-19T07:30:41.077Z,99.90
2023-04-19T07:33:08.550Z,99.90
2023-04-19T07:35:35.910Z,99.90
2023-04-19T07:38:02.936Z,99.90
2023-04-19T07:40:29.709Z,99.90
2023-04-19T07:42:56.708Z,99.90
2023-04-19T07:45:23.865Z,99.90
2023-04-19T07:47:50.842Z,99.90
2023-04-19T07:50:17.919Z,99.90
2023-04-19T07:52:44.809Z,99.90
2023-04-19T07:55:11.714Z,99.90
2023-04-19T07:57:38.934Z,99.90
2023-04-19T08:00:06.230Z,99.90
2023-04-19T08:02:48.235Z,99.90
2023-04-19T08:05:20.203Z,99.90
2023-04-19T08:07:47.453Z,99.90
2023-04-19T08:10:14.670Z,99.90
2023-04-19T08:12:53.460Z,99.90
2023-04-19T08:16:12.976Z,99.90
2023-04-19T08:18:16.104Z,99.90
2023-04-19T08:20:43.098Z,99.90
2023-04-19T08:23:21.530Z,99.90
2023-04-19T08:25:51.187Z,99.90
2023-04-19T08:28:19.259Z,99.90
2023-04-19T08:30:46.365Z,99.90
2023-04-19T08:33:13.193Z,99.90
2023-04-19T08:35:42.692Z,99.90
2023-04-19T08:38:09.971Z,99.90
2023-04-19T08:40:51.925Z,99.90
2023-04-19T08:43:19.769Z,99.90
2023-04-19T08:45:50.740Z,99.90
2023-04-19T08:48:18.288Z,99.90
2023-04-19T08:51:03.536Z,99.90
2023-04-19T08:53:33.200Z,99.90
2023-04-19T08:56:10.576Z,99.90
2023-04-19T08:58:57.716Z,99.90
2023-04-19T09:01:36.016Z,99.90
2023-04-19T09:04:26.273Z,99.90
2023-04-19T09:06:55.419Z,99.90
2023-04-19T09:09:36.661Z,99.90
2023-04-19T09:12:17.644Z,99.90
2023-04-19T09:14:57.898Z,99.90
2023-04-19T09:17:28.403Z,99.90
2023-04-19T09:19:55.559Z,99.90
2023-04-19T09:22:22.703Z,99.90
2023-04-19T09:27:30.232Z,99.90
2023-04-19T09:29:58.902Z,99.90
2023-04-19T09:32:26.778Z,99.90
2023-04-19T09:34:58.497Z,99.90
2023-04-19T09:37:51.579Z,99.90
2023-04-19T09:40:24.841Z,99.90
2023-04-19T09:45:29.676Z,99.90
2023-04-19T09:48:05.135Z,99.90
2023-04-19T09:50:33.991Z,99.90
2023-04-19T09:53:06.626Z,99.90
2023-04-19T09:55:48.608Z,99.90
2023-04-19T09:58:23.854Z,99.90
2023-04-19T10:00:57.249Z,99.90
2023-04-19T10:03:31.352Z,99.90
2023-04-19T10:06:00.456Z,99.90
2023-04-19T10:08:33.771Z,99.90
2023-04-19T10:11:01.497Z,99.90
2023-04-19T10:13:29.076Z,99.90
2023-04-19T10:16:04.562Z,99.90
2023-04-19T10:18:38.867Z,99.90
2023-04-19T10:21:08.304Z,99.90
2023-04-19T10:23:36.838Z,99.90
2023-04-19T10:26:03.702Z,99.90
2023-04-19T10:28:34.224Z,99.90
2023-04-19T10:31:02.890Z,99.90
2023-04-19T10:33:34.665Z,99.90
2023-04-19T10:36:02.292Z,99.90
2023-04-19T10:38:48.896Z,99.90
2023-04-19T10:41:18.501Z,99.90
2023-04-19T10:43:47.950Z,99.90
2023-04-19T10:46:20.302Z,99.90
2023-04-19T10:48:53.432Z,99.90
2023-04-19T10:51:51.312Z,99.90
2023-04-19T10:54:27.324Z,99.90
2023-04-19T10:57:02.517Z,99.90
2023-04-19T10:59:31.266Z,99.90
2023-04-19T11:02:01.126Z,99.90
2023-04-19T11:04:31.306Z,99.90
2023-04-19T11:07:05.992Z,99.90
2023-04-19T11:09:42.306Z,99.90
2023-04-19T11:12:12.296Z,99.90
2023-04-19T11:14:46.971Z,99.90
2023-04-19T11:17:20.907Z,99.90
2023-04-19T11:19:56.376Z,99.90
2023-04-19T11:22:45.327Z,99.90
2023-04-19T11:25:18.991Z,99.90
2023-04-19T11:27:48.833Z,99.90
2023-04-19T11:30:19.642Z,99.90
2023-04-19T11:32:48.338Z,99.80
2023-04-19T11:35:18.228Z,99.90
2023-04-19T11:37:45.878Z,99.90
2023-04-19T11:40:17.102Z,99.00
2023-04-19T11:42:44.802Z,99.70
2023-04-19T11:45:26.027Z,99.60
2023-04-19T11:47:56.256Z,99.90
2023-04-19T11:50:43.353Z,99.90
2023-04-19T11:53:11.006Z,99.90
2023-04-19T11:55:37.911Z,97.20
2023-04-19T11:58:09.738Z,95.90
2023-04-19T12:00:36.785Z,94.20
2023-04-19T12:03:04.824Z,94.60
2023-04-19T12:05:32.106Z,92.50
2023-04-19T12:08:16.984Z,93.70
2023-04-19T12:10:57.164Z,91.70
2023-04-19T12:13:25.578Z,89.30
2023-04-19T12:15:52.865Z,85.90
2023-04-19T12:18:19.807Z,86.60
2023-04-19T12:20:48.789Z,82.60
2023-04-19T12:23:17.297Z,85.50
2023-04-19T12:25:46.732Z,77.00
2023-04-19T12:28:14.721Z,75.40
2023-04-19T12:30:42.131Z,77.00
2023-04-19T12:33:09.830Z,75.50
2023-04-19T12:35:37.463Z,73.70
2023-04-19T12:38:04.465Z,73.60
2023-04-19T12:40:31.451Z,68.30
2023-04-19T12:42:58.205Z,70.80
2023-04-19T12:45:25.988Z,69.90
2023-04-19T12:47:52.884Z,72.10
2023-04-19T12:50:19.730Z,71.70
2023-04-19T12:52:46.826Z,68.70
2023-04-19T12:55:13.649Z,70.10
2023-04-19T12:57:40.509Z,68.80
2023-04-19T13:00:09.994Z,66.40
2023-04-19T13:02:37.080Z,63.30
2023-04-19T13:05:05.596Z,65.30
2023-04-19T13:07:32.448Z,66.50
2023-04-19T13:09:59.483Z,67.70
2023-04-19T13:12:26.274Z,63.40
2023-04-19T13:14:53.062Z,61.80
2023-04-19T13:17:20.658Z,61.90
2023-04-19T13:19:47.822Z,61.20
2023-04-19T13:22:15.445Z,61.30
2023-04-19T13:24:42.279Z,56.70
2023-04-19T13:27:09.464Z,56.20
2023-04-19T13:29:36.815Z,56.50
2023-04-19T13:32:07.488Z,57.20
2023-04-19T13:34:35.004Z,56.20
2023-04-19T13:37:02.055Z,55.10
2023-04-19T13:39:28.883Z,57.20
2023-04-19T13:41:55.689Z,56.70
2023-04-19T13:44:22.815Z,57.60
2023-04-19T13:46:49.653Z,56.20
2023-04-19T13:49:17.058Z,55.80
2023-04-19T13:51:50.264Z,56.10
2023-04-19T13:54:19.323Z,56.20
2023-04-19T13:56:48.104Z,57.10
2023-04-19T13:59:16.093Z,55.20
2023-04-19T14:01:42.803Z,55.40
2023-04-19T14:04:09.812Z,55.50
2023-04-19T14:06:36.880Z,54.20
2023-04-19T14:09:03.652Z,54.40
2023-04-19T14:11:30.649Z,55.60
2023-04-19T14:13:57.805Z,54.90
2023-04-19T14:16:25.485Z,55.50
2023-04-19T14:18:52.819Z,55.40
2023-04-19T14:21:20.088Z,55.70
2023-04-19T14:23:46.974Z,54.70
2023-04-19T14:26:14.546Z,54.50
2023-04-19T14:28:41.272Z,52.40
2023-04-19T14:31:08.162Z,52.40
2023-04-19T14:33:34.925Z,53.40
2023-04-19T14:36:01.854Z,54.70
2023-04-19T14:38:28.646Z,53.20
2023-04-19T14:40:56.319Z,55.90
2023-04-19T14:43:23.125Z,55.00
2023-04-19T14:45:50.184Z,53.70
2023-04-19T14:48:16.988Z,53.20
2023-04-19T14:50:43.759Z,54.40
2023-04-19T14:53:10.501Z,54.50
2023-04-19T14:55:38.377Z,56.70
2023-04-19T14:58:05.796Z,55.00
2023-04-19T15:00:33.405Z,54.40
2023-04-19T15:03:01.329Z,55.40
2023-04-19T15:05:28.591Z,53.90
2023-04-19T15:07:55.919Z,55.10
2023-04-19T15:10:22.688Z,56.30
2023-04-19T15:12:49.461Z,55.70
2023-04-19T15:15:16.465Z,56.10
2023-04-19T15:17:43.494Z,56.50
2023-04-19T15:20:10.477Z,55.60
2023-04-19T15:22:37.313Z,55.00
2023-04-19T15:25:04.388Z,55.60
2023-04-19T15:27:31.427Z,56.80
2023-04-19T15:29:58.431Z,57.30
2023-04-19T15:32:25.277Z,58.90
2023-04-19T15:34:52.244Z,58.20
2023-04-19T15:37:19.229Z,58.40
2023-04-19T15:39:46.180Z,59.20
2023-04-19T15:42:13.202Z,61.50
2023-04-19T15:44:41.517Z,60.40
2023-04-19T15:47:09.501Z,60.30
2023-04-19T15:49:36.648Z,59.60
2023-04-19T15:52:03.816Z,60.30
2023-04-19T15:54:30.790Z,60.90
2023-04-19T15:56:57.525Z,60.20
2023-04-19T15:59:24.279Z,60.20
2023-04-19T16:01:51.119Z,60.20
2023-04-19T16:04:18.135Z,62.00
2023-04-19T16:06:45.017Z,61.80
2023-04-19T16:09:11.965Z,62.50
2023-04-19T16:11:39.269Z,64.80
2023-04-19T16:14:06.098Z,63.40
2023-04-19T16:16:35.255Z,61.80
2023-04-19T16:19:02.353Z,62.60
2023-04-19T16:21:29.090Z,62.70
2023-04-19T16:23:56.251Z,63.00
2023-04-19T16:26:23.087Z,61.60
2023-04-19T16:28:49.863Z,61.50
2023-04-19T16:31:16.749Z,60.10
2023-04-19T16:33:43.698Z,59.80
2023-04-19T16:36:10.698Z,61.40
2023-04-19T16:38:37.364Z,61.40
2023-04-19T16:41:05.856Z,61.00
2023-04-19T16:43:33.141Z,59.40
2023-04-19T16:46:00.044Z,60.20
2023-04-19T16:48:27.012Z,61.10
2023-04-19T16:50:53.896Z,79.40
2023-04-19T16:53:20.965Z,84.00
2023-04-19T16:55:47.848Z,73.40
2023-04-19T16:58:14.718Z,70.90
2023-04-19T17:00:41.534Z,72.20
2023-04-19T17:03:09.440Z,72.80
2023-04-19T17:05:36.422Z,63.70
2023-04-19T17:08:03.314Z,64.80
2023-04-19T17:10:30.159Z,64.90
2023-04-19T17:12:56.912Z,63.10
2023-04-19T17:15:24.192Z,65.00
2023-04-19T17:17:50.948Z,63.00
2023-04-19T17:20:17.868Z,62.60
2023-04-19T17:22:44.618Z,63.30
2023-04-19T17:25:11.392Z,63.30
2023-04-19T17:27:38.999Z,63.10
2023-04-19T17:30:07.272Z,63.30
2023-04-19T17:32:34.201Z,65.50
2023-04-19T17:35:01.116Z,62.30
2023-04-19T17:37:27.839Z,63.10
2023-04-19T17:39:54.609Z,61.30
2023-04-19T17:42:21.610Z,61.90
2023-04-19T17:44:48.629Z,63.30
2023-04-19T17:47:15.817Z,63.00
2023-04-19T17:49:45.424Z,63.20
2023-04-19T17:52:12.964Z,64.20
2023-04-19T17:54:39.655Z,63.20
2023-04-19T17:57:06.754Z,63.30
2023-04-19T17:59:33.528Z,63.40
2023-04-19T18:02:00.695Z,65.00
2023-04-19T18:04:27.745Z,64.90
2023-04-19T18:06:54.575Z,65.60
2023-04-19T18:09:21.292Z,66.40
2023-04-19T18:11:48.180Z,65.90
2023-04-19T18:14:15.359Z,66.20
2023-04-19T18:16:42.259Z,67.50
2023-04-19T18:19:09.408Z,67.90
2023-04-19T18:21:36.914Z,69.30
2023-04-19T18:24:03.820Z,70.90
2023-04-19T18:26:38.846Z,71.80
2023-04-19T18:29:05.722Z,71.50
2023-04-19T18:31:32.693Z,72.20
2023-04-19T18:34:01.297Z,73.20
2023-04-19T18:36:29.056Z,72.80
2023-04-19T18:38:56.450Z,73.30
2023-04-19T18:41:23.845Z,73.50
2023-04-19T18:44:18.430Z,73.30
2023-04-19T18:46:37.246Z,74.20
2023-04-19T18:49:04.300Z,73.40
2023-04-19T18:51:31.272Z,74.20
2023-04-19T18:53:58.366Z,73.90
2023-04-19T18:56:48.612Z,74.00
2023-04-19T18:59:12.663Z,75.50
2023-04-19T19:01:40.159Z,75.10
2023-04-19T19:04:31.765Z,76.50
2023-04-19T19:06:54.583Z,76.20
2023-04-19T19:09:22.853Z,77.60
2023-04-19T19:11:56.510Z,78.10
2023-04-19T19:14:24.177Z,80.20
2023-04-19T19:16:52.771Z,80.60
2023-04-19T19:19:22.275Z,80.70
2023-04-19T19:21:49.331Z,82.70
2023-04-19T19:24:16.282Z,83.50
2023-04-19T19:26:43.220Z,85.60
2023-04-19T19:29:15.028Z,85.30
2023-04-19T19:31:42.899Z,86.50
2023-04-19T19:34:25.322Z,87.00
2023-04-19T19:36:55.787Z,91.10
2023-04-19T19:39:22.907Z,90.50
2023-04-19T19:42:05.373Z,88.90
2023-04-19T19:44:33.235Z,89.80
2023-04-19T19:46:59.971Z,91.00
2023-04-19T19:49:27.474Z,90.30
2023-04-19T19:51:58.476Z,90.40
2023-04-19T19:54:26.378Z,91.10
2023-04-19T19:57:34.596Z,92.40
2023-04-19T19:59:40.245Z,93.70
2023-04-19T20:02:07.585Z,94.30
2023-04-19T20:04:38.697Z,94.90
2023-04-19T20:09:36.102Z,96.10
2023-04-19T20:12:03.005Z,96.90
2023-04-19T20:14:29.923Z,97.90
2023-04-19T20:16:56.774Z,98.30
2023-04-19T20:19:24.525Z,99.50
2023-04-19T20:21:51.338Z,99.90
2023-04-19T20:24:18.082Z,99.90
2023-04-19T20:26:44.840Z,99.90
2023-04-19T20:29:11.646Z,99.90
2023-04-19T20:31:38.382Z,99.90
2023-04-19T20:34:05.774Z,99.90
2023-04-19T20:36:33.036Z,99.90
2023-04-19T20:39:01.804Z,99.90
2023-04-19T20:41:28.545Z,99.90
2023-04-19T20:43:57.541Z,99.90
2023-04-19T20:46:24.377Z,99.90
2023-04-19T20:48:51.177Z,99.90
2023-04-19T20:51:17.930Z,99.90
2023-04-19T20:53:44.747Z,99.90
2023-04-19T20:56:11.453Z,99.90
2023-04-19T20:58:39.683Z,99.90
2023-04-19T21:01:06.421Z,99.90
2023-04-19T21:03:33.657Z,99.90
2023-04-19T21:06:00.649Z,99.90
2023-04-19T21:08:27.735Z,99.90
2023-04-19T21:10:54.520Z,99.90
2023-04-19T21:13:21.260Z,99.90
2023-04-19T21:15:48.159Z,99.90
2023-04-19T21:18:15.266Z,99.90
2023-04-19T21:20:42.073Z,99.90
2023-04-19T21:23:08.983Z,99.90
2023-04-19T21:25:35.680Z,99.90
2023-04-19T21:28:02.413Z,99.90
2023-04-19T21:30:29.767Z,99.90
2023-04-19T21:32:56.535Z,99.90
2023-04-19T21:35:23.553Z,99.90
2023-04-19T21:37:52.106Z,99.90
2023-04-19T21:40:18.874Z,99.90
2023-04-19T21:42:47.420Z,99.90
2023-04-19T21:45:14.183Z,99.90
2023-04-19T21:47:41.045Z,99.90
2023-04-19T21:50:08.504Z,99.90
2023-04-19T21:52:35.378Z,99.90
2023-04-19T21:55:02.234Z,99.90
2023-04-19T21:57:30.826Z,99.90
2023-04-19T21:59:57.648Z,99.90
2023-04-19T22:02:24.542Z,99.90
2023-04-19T22:04:52.697Z,99.90
2023-04-19T22:07:19.485Z,99.90
2023-04-19T22:09:46.461Z,99.90
2023-04-19T22:12:13.628Z,99.90
2023-04-19T22:14:40.791Z,99.90
2023-04-19T22:17:08.944Z,99.90
2023-04-19T22:19:35.771Z,99.90
2023-04-19T22:22:02.482Z,99.90
2023-04-19T22:24:29.206Z,99.90
2023-04-19T22:26:57.672Z,99.90
2023-04-19T22:29:24.459Z,99.90
2023-04-19T22:31:51.303Z,99.90
2023-04-19T22:34:18.110Z,99.90
2023-04-19T22:36:45.246Z,99.90
2023-04-19T22:39:12.221Z,99.90
2023-04-19T22:41:38.932Z,99.90
2023-04-19T22:44:05.805Z,99.90
2023-04-19T22:46:33.146Z,99.90
2023-04-19T22:49:00.664Z,99.90
2023-04-19T22:51:27.790Z,99.90
2023-04-19T22:53:55.081Z,99.90
2023-04-19T22:56:22.053Z,99.90
2023-04-19T22:58:49.060Z,99.90
2023-04-19T23:01:16.256Z,99.90
2023-04-19T23:03:43.005Z,99.90
2023-04-19T23:06:09.786Z,99.90
2023-04-19T23:08:36.756Z,99.90
2023-04-19T23:11:03.551Z,99.90
2023-04-19T23:13:30.275Z,99.90
2023-04-19T23:15:57.066Z,99.90
2023-04-19T23:18:23.953Z,99.90
2023-04-19T23:20:50.774Z,99.90
2023-04-19T23:23:20.000Z,99.90
2023-04-19T23:25:46.871Z,99.90
2023-04-19T23:28:13.583Z,99.90
2023-04-19T23:30:40.806Z,99.90
2023-04-19T23:33:07.596Z,99.90
2023-04-19T23:35:34.419Z,99.90
2023-04-19T23:38:01.102Z,99.90
2023-04-19T23:40:27.855Z,99.90
2023-04-19T23:42:54.588Z,99.90
2023-04-19T23:45:21.474Z,99.90
2023-04-19T23:47:48.163Z,99.90
2023-04-19T23:50:14.956Z,99.90
2023-04-19T23:52:41.759Z,99.90
2023-04-19T23:55:09.236Z,99.90
2023-04-19T23:57:36.030Z,99.90
